Dades meteomassalio
Diari Summary for Octubre 31, 2017 Units:  Metric    English   Both
« Previous Day
Next Day »
Diari Semanal Mensual Anual Personalitzat
  Maxima: Minima: Mijana:
Temperatura: 18.3 °C 1.1 °C 9 °C
Rosada: 8.4 °C -1.1 °C 3.4 °C
Humitat: 87 % 48 % 70 %
Velocitat del vent: 16.7 km/h 0.0 km/h 3.1 km/h
Racha vent: 16.7 km/h - -
Vent:- - SW
Pressio: 1027.0 hPa 1023.2 hPa -
Pluja: 0.0 mm    
Historical Graphs
 
 
Tabular Data for Octubre 31, 2017
Time Temperature Dew Point Pressure Wind Wind Speed Wind Gust Humidity Rainfall Rate (Hourly) solar Conditions
00:04 9.4 °C 3.6 °C 1024.3 hPa SSW 16.7 km/h 16.7 km/h 67 % 0.0 mm 0.0 W/m2 CLR
00:09 9.4 °C 3.6 °C 1024.3 hPa SSE 16.7 km/h 16.7 km/h 67 % 0.0 mm 0.0 W/m2 CLR
00:14 9.4 °C 3.8 °C 1024.3 hPa SSE 11.1 km/h 11.1 km/h 68 % 0.0 mm 0.0 W/m2 CLR
00:19 9.4 °C 3.8 °C 1024.3 hPa SSE 9.7 km/h 9.7 km/h 68 % 0.0 mm 0.0 W/m2 CLR
00:24 9.4 °C 4.1 °C 1024.3 hPa SSE 9.3 km/h 9.3 km/h 69 % 0.0 mm 0.0 W/m2 CLR
00:29 9.4 °C 4.1 °C 1024.3 hPa Calm     69 % 0.0 mm 0.0 W/m2 CLR
00:34 9.4 °C 4.2 °C 1024.3 hPa SSE 5.6 km/h 5.6 km/h 70 % 0.0 mm 0.0 W/m2 CLR
00:39 10.0 °C 4.8 °C 1024.3 hPa SSE 8.0 km/h 8.0 km/h 70 % 0.0 mm 0.0 W/m2 CLR
00:44 10.0 °C 5.0 °C 1024.6 hPa Calm     71 % 0.0 mm 0.0 W/m2 CLR
00:49 10.0 °C 5.0 °C 1024.6 hPa Calm     71 % 0.0 mm 0.0 W/m2 CLR
00:54 9.4 °C 4.4 °C 1024.6 hPa Calm     71 % 0.0 mm 0.0 W/m2 CLR
00:59 9.4 °C 4.4 °C 1024.6 hPa Calm     71 % 0.0 mm 0.0 W/m2 CLR
01:04 8.9 °C 3.9 °C 1024.6 hPa SSW 12.9 km/h 12.9 km/h 71 % 0.0 mm 0.0 W/m2 CLR
01:09 7.8 °C 2.8 °C 1024.6 hPa Calm     71 % 0.0 mm 0.0 W/m2 CLR
01:14 7.8 °C 2.8 °C 1024.3 hPa Calm     71 % 0.0 mm 0.0 W/m2 CLR
01:19 7.2 °C 2.3 °C 1024.3 hPa Calm     71 % 0.0 mm 0.0 W/m2 CLR
01:24 6.7 °C 2.0 °C 1024.3 hPa Calm     72 % 0.0 mm 0.0 W/m2 CLR
01:34 6.1 °C 1.8 °C 1024.3 hPa South 11.1 km/h 11.1 km/h 74 % 0.0 mm 0.0 W/m2 CLR
01:39 5.6 °C 1.3 °C 1024.3 hPa SSE 9.3 km/h 9.3 km/h 74 % 0.0 mm 0.0 W/m2 CLR
01:44 5.6 °C 1.3 °C 1024.3 hPa South 6.4 km/h 6.4 km/h 74 % 0.0 mm 0.0 W/m2 CLR
01:49 5.6 °C 1.4 °C 1024.3 hPa SSE 7.4 km/h 7.4 km/h 75 % 0.0 mm 0.0 W/m2 CLR
01:54 5.0 °C 0.9 °C 1024.3 hPa Calm     75 % 0.0 mm 0.0 W/m2 CLR
01:59 5.0 °C 0.7 °C 1024.6 hPa Calm     74 % 0.0 mm 0.0 W/m2 CLR
02:04 5.0 °C 0.9 °C 1024.6 hPa Calm     75 % 0.0 mm 0.0 W/m2 CLR
02:09 4.4 °C 0.4 °C 1024.6 hPa Calm     75 % 0.0 mm 0.0 W/m2 CLR
02:19 4.4 °C 0.4 °C 1024.6 hPa Calm     75 % 0.0 mm 0.0 W/m2 CLR
02:24 4.4 °C 0.4 °C 1024.6 hPa Calm     75 % 0.0 mm 0.0 W/m2 CLR
02:29 4.4 °C 0.4 °C 1024.6 hPa Calm     75 % 0.0 mm 0.0 W/m2 CLR
02:34 3.9 °C 0.1 °C 1024.3 hPa Calm     76 % 0.0 mm 0.0 W/m2 CLR
02:40 3.9 °C 0.1 °C 1024.3 hPa SSE 8.0 km/h 8.0 km/h 76 % 0.0 mm 0.0 W/m2 CLR
02:45 3.9 °C 0.2 °C 1024.3 hPa SSE 11.3 km/h 11.3 km/h 77 % 0.0 mm 0.0 W/m2 CLR
02:50 3.3 °C -0.3 °C 1024.3 hPa SSE 16.7 km/h 16.7 km/h 77 % 0.0 mm 0.0 W/m2 CLR
02:55 3.3 °C -0.3 °C 1024.3 hPa SSE 13.0 km/h 13.0 km/h 77 % 0.0 mm 0.0 W/m2 CLR
03:00 3.3 °C -0.3 °C 1024.3 hPa SSE 11.1 km/h 11.1 km/h 77 % 0.0 mm 0.0 W/m2 CLR
03:05 3.3 °C -0.3 °C 1024.3 hPa SSE 11.3 km/h 11.3 km/h 77 % 0.0 mm 0.0 W/m2 CLR
03:10 3.3 °C -0.2 °C 1024.3 hPa SSE 16.7 km/h 16.7 km/h 78 % 0.0 mm 0.0 W/m2 CLR
03:15 2.8 °C -0.5 °C 1024.3 hPa South 12.9 km/h 12.9 km/h 79 % 0.0 mm 0.0 W/m2 CLR
03:20 2.8 °C -0.7 °C 1024.3 hPa SSE 9.7 km/h 9.7 km/h 78 % 0.0 mm 0.0 W/m2 CLR
03:25 2.8 °C -0.5 °C 1024.3 hPa SSE 13.0 km/h 13.0 km/h 79 % 0.0 mm 0.0 W/m2 CLR
03:30 2.8 °C -0.5 °C 1024.3 hPa South 11.3 km/h 11.3 km/h 79 % 0.0 mm 0.0 W/m2 CLR
03:35 2.8 °C -0.3 °C 1023.9 hPa South 13.0 km/h 13.0 km/h 80 % 0.0 mm 0.0 W/m2 CLR
03:40 2.8 °C -0.5 °C 1024.3 hPa SSE 14.8 km/h 14.8 km/h 79 % 0.0 mm 0.0 W/m2 CLR
03:45 2.8 °C -0.7 °C 1024.3 hPa SE 9.3 km/h 9.3 km/h 78 % 0.0 mm 0.0 W/m2 CLR
03:50 2.8 °C -0.7 °C 1024.3 hPa South 6.4 km/h 6.4 km/h 78 % 0.0 mm 0.0 W/m2 CLR
03:55 2.8 °C -0.7 °C 1024.3 hPa SE 5.6 km/h 5.6 km/h 78 % 0.0 mm 0.0 W/m2 CLR
04:00 2.8 °C -0.5 °C 1024.3 hPa SE 5.6 km/h 5.6 km/h 79 % 0.0 mm 0.0 W/m2 CLR
04:05 2.8 °C -0.5 °C 1024.3 hPa SE 5.6 km/h 5.6 km/h 79 % 0.0 mm 0.0 W/m2 CLR
04:10 2.8 °C -0.5 °C 1024.3 hPa SSE 6.4 km/h 6.4 km/h 79 % 0.0 mm 0.0 W/m2 CLR
04:17 2.8 °C -0.3 °C 1024.3 hPa SE 7.4 km/h 7.4 km/h 80 % 0.0 mm 0.0 W/m2 CLR
04:21 2.8 °C -0.2 °C 1024.3 hPa SSE 8.0 km/h 8.0 km/h 81 % 0.0 mm 0.0 W/m2 CLR
04:24 2.8 °C -0.2 °C 1024.3 hPa SSE 8.0 km/h 8.0 km/h 81 % 0.0 mm 0.0 W/m2 CLR
04:26 2.8 °C -0.2 °C 1024.3 hPa SSE 9.3 km/h 9.3 km/h 81 % 0.0 mm 0.0 W/m2 CLR
04:27 2.8 °C -0.2 °C 1024.3 hPa SSE 9.7 km/h 9.7 km/h 81 % 0.0 mm 0.0 W/m2 CLR
04:29 2.2 °C -0.6 °C 1024.3 hPa SSE 9.3 km/h 9.3 km/h 82 % 0.0 mm 0.0 W/m2 CLR
04:30 2.2 °C -0.6 °C 1024.3 hPa SSE 7.4 km/h 7.4 km/h 82 % 0.0 mm 0.0 W/m2 CLR
04:32 2.2 °C -0.6 °C 1024.6 hPa SSE 9.7 km/h 9.7 km/h 82 % 0.0 mm 0.0 W/m2 CLR
04:41 2.2 °C -0.4 °C 1024.6 hPa South 9.7 km/h 9.7 km/h 83 % 0.0 mm 0.0 W/m2 CLR
04:46 2.2 °C -0.4 °C 1024.6 hPa South 7.4 km/h 7.4 km/h 83 % 0.0 mm 0.0 W/m2 CLR
04:51 2.2 °C -0.6 °C 1024.6 hPa Calm     82 % 0.0 mm 0.0 W/m2 CLR
04:56 2.2 °C -0.7 °C 1024.6 hPa Calm     81 % 0.0 mm 0.0 W/m2 CLR
05:01 2.2 °C -0.7 °C 1024.6 hPa SSE 8.0 km/h 8.0 km/h 81 % 0.0 mm 0.0 W/m2 CLR
05:06 2.2 °C -0.6 °C 1024.6 hPa SSE 7.4 km/h 7.4 km/h 82 % 0.0 mm 0.0 W/m2 CLR
05:11 2.2 °C -0.4 °C 1024.6 hPa SSE 7.4 km/h 7.4 km/h 83 % 0.0 mm 0.0 W/m2 CLR
05:16 1.7 °C -0.9 °C 1024.6 hPa SSE 7.4 km/h 7.4 km/h 83 % 0.0 mm 0.0 W/m2 CLR
05:21 1.7 °C -0.7 °C 1024.9 hPa Calm     84 % 0.0 mm 0.0 W/m2 CLR
05:26 1.7 °C -0.7 °C 1024.9 hPa Calm     84 % 0.0 mm 0.0 W/m2 CLR
05:31 1.7 °C -0.7 °C 1024.9 hPa Calm     84 % 0.0 mm 0.0 W/m2 CLR
05:36 1.7 °C -0.7 °C 1024.9 hPa Calm     84 % 0.0 mm 0.0 W/m2 CLR
05:41 1.7 °C -0.7 °C 1024.9 hPa Calm     84 % 0.0 mm 0.0 W/m2 CLR
05:46 1.7 °C -0.7 °C 1024.9 hPa Calm     84 % 0.0 mm 0.0 W/m2 CLR
05:51 1.7 °C -0.7 °C 1024.9 hPa Calm     84 % 0.0 mm 0.0 W/m2 CLR
05:56 1.7 °C -0.7 °C 1024.9 hPa Calm     84 % 0.0 mm 0.0 W/m2 CLR
06:01 1.7 °C -0.6 °C 1024.9 hPa Calm     85 % 0.0 mm 0.0 W/m2 CLR
06:06 1.1 °C -1.1 °C 1024.9 hPa Calm     85 % 0.0 mm 0.0 W/m2 CLR
06:11 1.1 °C -1.1 °C 1024.9 hPa Calm     85 % 0.0 mm 0.0 W/m2 CLR
06:22 1.1 °C -1.1 °C 1024.9 hPa Calm     85 % 0.0 mm 0.0 W/m2 CLR
06:27 1.1 °C -1.1 °C 1024.9 hPa Calm     85 % 0.0 mm 0.0 W/m2 CLR
06:32 1.1 °C -1.1 °C 1024.9 hPa Calm     85 % 0.0 mm 0.0 W/m2 CLR
06:37 1.1 °C -0.9 °C 1024.9 hPa Calm     86 % 0.0 mm 0.0 W/m2 CLR
06:42 1.1 °C -0.9 °C 1024.9 hPa Calm     86 % 0.0 mm 0.0 W/m2 CLR
06:47 1.1 °C -0.9 °C 1024.9 hPa Calm     86 % 0.0 mm 0.0 W/m2 CLR
06:52 1.1 °C -0.9 °C 1024.9 hPa Calm     86 % 0.0 mm 0.0 W/m2 CLR
06:57 1.1 °C -0.9 °C 1024.9 hPa Calm     86 % 0.0 mm 0.0 W/m2 CLR
07:02 1.1 °C -0.9 °C 1024.9 hPa Calm     86 % 0.0 mm 0.0 W/m2 CLR
07:07 1.1 °C -0.9 °C 1025.3 hPa Calm     86 % 0.0 mm 0.0 W/m2 CLR
07:12 1.1 °C -0.8 °C 1025.3 hPa Calm     87 % 0.0 mm 0.0 W/m2 CLR
07:17 1.1 °C -0.9 °C 1025.3 hPa Calm     86 % 0.0 mm 0.0 W/m2 CLR
07:22 1.1 °C -0.9 °C 1025.3 hPa Calm     86 % 0.0 mm 0.0 W/m2 OVC
07:27 1.1 °C -0.9 °C 1025.3 hPa Calm     86 % 0.0 mm 0.0 W/m2 OVC
07:32 1.1 °C -0.9 °C 1025.3 hPa Calm     86 % 0.0 mm 5.0 W/m2 OVC
07:37 1.7 °C -0.4 °C 1025.6 hPa Calm     86 % 0.0 mm 9.0 W/m2 OVC
07:42 1.7 °C -0.4 °C 1025.3 hPa Calm     86 % 0.0 mm 12.0 W/m2 OVC
07:47 1.7 °C -0.4 °C 1025.3 hPa Calm     86 % 0.0 mm 14.0 W/m2 OVC
07:52 1.7 °C -0.4 °C 1025.3 hPa Calm     86 % 0.0 mm 18.0 W/m2 OVC
07:57 1.7 °C -0.4 °C 1025.6 hPa Calm     86 % 0.0 mm 23.0 W/m2 OVC
08:02 1.7 °C -0.4 °C 1025.3 hPa Calm     86 % 0.0 mm 32.0 W/m2 OVC
08:07 1.7 °C -0.6 °C 1025.6 hPa ESE 1.6 km/h   85 % 0.0 mm 37.0 W/m2 OVC
08:12 2.2 °C -0.1 °C 1025.6 hPa Calm     85 % 0.0 mm 46.0 W/m2 OVC
08:17 2.2 °C -0.1 °C 1026.0 hPa Calm     85 % 0.0 mm 53.0 W/m2 OVC
08:22 2.8 °C 0.5 °C 1026.0 hPa Calm     85 % 0.0 mm 69.0 W/m2 OVC
08:27 2.8 °C 0.2 °C 1026.0 hPa Calm     83 % 0.0 mm 81.0 W/m2 OVC
08:32 3.3 °C 0.7 °C 1026.0 hPa Calm     83 % 0.0 mm 77.0 W/m2 BKN
08:37 3.9 °C 1.1 °C 1026.0 hPa Calm     82 % 0.0 mm 111.0 W/m2 FEW
08:47 3.9 °C 0.8 °C 1026.3 hPa Calm     80 % 0.0 mm 139.0 W/m2 CLR
08:52 4.4 °C 0.9 °C 1026.3 hPa Calm     78 % 0.0 mm 163.0 W/m2 CLR
08:57 4.4 °C 0.8 °C 1026.3 hPa Calm     77 % 0.0 mm 153.0 W/m2 CLR
09:02 4.4 °C 0.6 °C 1026.3 hPa Calm     76 % 0.0 mm 199.0 W/m2 CLR
09:07 4.4 °C 0.4 °C 1026.3 hPa Calm     75 % 0.0 mm 213.0 W/m2 CLR
09:12 5.0 °C 0.9 °C 1026.3 hPa Calm     75 % 0.0 mm 227.0 W/m2 CLR
09:17 5.6 °C 1.3 °C 1026.3 hPa Calm     74 % 0.0 mm 241.0 W/m2 CLR
09:22 5.6 °C 0.9 °C 1026.6 hPa Calm     72 % 0.0 mm 260.0 W/m2 CLR
09:27 6.1 °C 1.4 °C 1026.6 hPa Calm     72 % 0.0 mm 272.0 W/m2 CLR
09:32 7.2 °C 2.5 °C 1026.6 hPa Calm     72 % 0.0 mm 285.0 W/m2 CLR
09:37 8.3 °C 3.2 °C 1026.6 hPa Calm     70 % 0.0 mm 297.0 W/m2 CLR
09:42 8.3 °C 3.0 °C 1026.6 hPa Calm     69 % 0.0 mm 311.0 W/m2 CLR
09:48 8.3 °C 2.8 °C 1026.6 hPa Calm     68 % 0.0 mm 323.0 W/m2 CLR
09:53 8.9 °C 3.1 °C 1026.6 hPa Calm     67 % 0.0 mm 334.0 W/m2 CLR
09:58 9.4 °C 3.4 °C 1026.6 hPa Calm     66 % 0.0 mm 345.0 W/m2 CLR
10:03 10.0 °C 3.7 °C 1026.6 hPa Calm   0.2 km/h 65 % 0.0 mm 353.0 W/m2 CLR
10:08 10.0 °C 3.3 °C 1026.6 hPa Calm     63 % 0.0 mm 160.0 W/m2 CLR
10:13 10.6 °C 3.6 °C 1027.0 hPa Calm     62 % 0.0 mm 376.0 W/m2 CLR
10:18 11.1 °C 3.9 °C 1027.0 hPa South 3.7 km/h 3.7 km/h 61 % 0.0 mm 387.0 W/m2 CLR
10:23 11.1 °C 4.1 °C 1026.6 hPa Calm     62 % 0.0 mm 399.0 W/m2 CLR
10:28 11.7 °C 4.4 °C 1027.0 hPa WSW 3.7 km/h 3.7 km/h 61 % 0.0 mm 411.0 W/m2 CLR
10:33 11.7 °C 4.4 °C 1026.6 hPa West 3.7 km/h 3.7 km/h 61 % 0.0 mm 422.0 W/m2 CLR
10:38 11.7 °C 4.4 °C 1026.6 hPa WSW 9.3 km/h 9.3 km/h 61 % 0.0 mm 429.0 W/m2 CLR
10:40 11.7 °C 4.2 °C 1026.6 hPa West 5.6 km/h 5.6 km/h 60 % 0.0 mm 434.0 W/m2 CLR
10:45 12.2 °C 4.7 °C 1026.6 hPa Calm     60 % 0.0 mm 445.0 W/m2 CLR
10:46 12.2 °C 4.7 °C 1026.6 hPa Calm     60 % 0.0 mm 446.0 W/m2 CLR
10:51 12.8 °C 5.2 °C 1026.6 hPa Calm     60 % 0.0 mm 457.0 W/m2 CLR
10:56 12.8 °C 4.7 °C 1026.6 hPa Calm     58 % 0.0 mm 466.0 W/m2 CLR
11:01 12.8 °C 4.9 °C 1026.3 hPa Calm     59 % 0.0 mm 473.0 W/m2 CLR
11:06 12.8 °C 4.7 °C 1026.3 hPa Calm     58 % 0.0 mm 476.0 W/m2 CLR
11:11 12.8 °C 4.7 °C 1026.3 hPa WSW 1.9 km/h 1.9 km/h 58 % 0.0 mm 489.0 W/m2 CLR
11:16 12.8 °C 4.4 °C 1026.3 hPa Calm     57 % 0.0 mm 496.0 W/m2 CLR
11:21 13.3 °C 5.0 °C 1026.3 hPa Calm     57 % 0.0 mm 501.0 W/m2 CLR
11:26 12.8 °C 4.4 °C 1026.3 hPa Calm     57 % 0.0 mm 508.0 W/m2 CLR
11:31 13.3 °C 4.7 °C 1026.3 hPa WNW 5.6 km/h 5.6 km/h 56 % 0.0 mm 515.0 W/m2 CLR
11:36 13.9 °C 5.0 °C 1026.3 hPa Calm     55 % 0.0 mm 520.0 W/m2 CLR
11:41 13.9 °C 5.0 °C 1026.3 hPa SW 3.7 km/h 3.7 km/h 55 % 0.0 mm 520.0 W/m2 CLR
11:46 13.3 °C 4.2 °C 1026.0 hPa Calm     54 % 0.0 mm 526.0 W/m2 CLR
11:51 13.9 °C 4.7 °C 1026.0 hPa Calm     54 % 0.0 mm 529.0 W/m2 CLR
11:56 13.9 °C 4.2 °C 1025.6 hPa Calm     52 % 0.0 mm 534.0 W/m2 CLR
12:01 14.4 °C 4.4 °C 1025.6 hPa Calm     51 % 0.0 mm 538.0 W/m2 CLR
12:06 14.4 °C 4.4 °C 1025.6 hPa Calm     51 % 0.0 mm 545.0 W/m2 CLR
12:11 14.4 °C 4.4 °C 1025.6 hPa NW 5.6 km/h 5.6 km/h 51 % 0.0 mm 545.0 W/m2 CLR
12:16 14.4 °C 4.2 °C 1025.3 hPa NW 4.8 km/h 4.8 km/h 50 % 0.0 mm 548.0 W/m2 CLR
12:21 15.0 °C 4.9 °C 1025.3 hPa Calm     51 % 0.0 mm 550.0 W/m2 CLR
12:26 15.0 °C 4.9 °C 1025.3 hPa North 5.6 km/h 5.6 km/h 51 % 0.0 mm 555.0 W/m2 CLR
12:31 15.6 °C 5.7 °C 1025.3 hPa Calm     52 % 0.0 mm 557.0 W/m2 CLR
12:36 15.0 °C 5.2 °C 1025.3 hPa Calm     52 % 0.0 mm 555.0 W/m2 CLR
12:41 15.0 °C 5.2 °C 1025.3 hPa NW 3.7 km/h   52 % 0.0 mm 555.0 W/m2 CLR
12:46 15.0 °C 4.7 °C 1024.9 hPa NNW 3.7 km/h 3.7 km/h 50 % 0.0 mm 555.0 W/m2 CLR
12:51 15.6 °C 5.2 °C 1024.9 hPa North 3.7 km/h 3.7 km/h 50 % 0.0 mm 555.0 W/m2 CLR
12:56 15.6 °C 5.2 °C 1024.9 hPa NNW 5.6 km/h 5.6 km/h 50 % 0.0 mm 550.0 W/m2 CLR
13:01 15.6 °C 5.2 °C 1024.9 hPa Calm     50 % 0.0 mm 554.0 W/m2 CLR
13:06 15.6 °C 5.4 °C 1024.9 hPa North 3.7 km/h 3.7 km/h 51 % 0.0 mm 550.0 W/m2 CLR
13:11 15.6 °C 5.4 °C 1024.9 hPa North 3.7 km/h 3.7 km/h 51 % 0.0 mm 550.0 W/m2 CLR
13:16 15.6 °C 5.4 °C 1024.9 hPa NNW 5.6 km/h 5.6 km/h 51 % 0.0 mm 547.0 W/m2 CLR
13:21 15.6 °C 5.4 °C 1024.9 hPa Calm     51 % 0.0 mm 545.0 W/m2 CLR
13:26 16.1 °C 5.7 °C 1024.6 hPa NNW 3.7 km/h 3.7 km/h 50 % 0.0 mm 545.0 W/m2 CLR
13:31 16.1 °C 5.9 °C 1024.6 hPa Calm     51 % 0.0 mm 538.0 W/m2 CLR
13:36 16.1 °C 5.4 °C 1024.6 hPa North 7.4 km/h 7.4 km/h 49 % 0.0 mm 534.0 W/m2 CLR
13:41 16.7 °C 5.9 °C 1024.6 hPa NW 5.6 km/h 5.6 km/h 49 % 0.0 mm 533.0 W/m2 CLR
13:46 16.7 °C 5.9 °C 1024.6 hPa NW 3.7 km/h 3.7 km/h 49 % 0.0 mm 526.0 W/m2 CLR
13:51 17.2 °C 6.7 °C 1024.6 hPa Calm   0.6 km/h 50 % 0.0 mm 522.0 W/m2 CLR
13:52 16.7 °C 6.2 °C 1024.6 hPa NW 3.7 km/h   50 % 0.0 mm 520.0 W/m2 CLR
13:57 16.1 °C 5.4 °C 1024.6 hPa NW 1.9 km/h   49 % 0.0 mm 519.0 W/m2 CLR
14:02 16.1 °C 5.7 °C 1024.6 hPa Calm     50 % 0.0 mm 510.0 W/m2 CLR
14:07 16.1 °C 5.4 °C 1024.6 hPa WNW 3.7 km/h 3.7 km/h 49 % 0.0 mm 504.0 W/m2 CLR
14:17 16.7 °C 5.9 °C 1024.3 hPa NW 5.6 km/h 5.6 km/h 49 % 0.0 mm 492.0 W/m2 CLR
14:22 16.7 °C 5.9 °C 1024.3 hPa NW 7.4 km/h 7.4 km/h 49 % 0.0 mm 483.0 W/m2 CLR
14:27 16.7 °C 5.9 °C 1024.3 hPa West 1.6 km/h 1.6 km/h 49 % 0.0 mm 476.0 W/m2 CLR
14:32 16.7 °C 5.9 °C 1024.3 hPa Calm     49 % 0.0 mm 468.0 W/m2 CLR
14:37 16.7 °C 5.9 °C 1024.3 hPa West 5.6 km/h 5.6 km/h 49 % 0.0 mm 459.0 W/m2 CLR
14:42 17.2 °C 6.1 °C 1024.3 hPa WNW 5.6 km/h 5.6 km/h 48 % 0.0 mm 452.0 W/m2 CLR
14:47 17.2 °C 6.1 °C 1023.9 hPa Calm   0.5 km/h 48 % 0.0 mm 439.0 W/m2 CLR
14:52 17.2 °C 6.1 °C 1023.9 hPa WNW 14.8 km/h 14.8 km/h 48 % 0.0 mm 431.0 W/m2 CLR
14:57 17.8 °C 6.9 °C 1023.9 hPa NNW 6.4 km/h 6.4 km/h 49 % 0.0 mm 422.0 W/m2 CLR
15:02 17.8 °C 6.9 °C 1023.9 hPa NW 12.9 km/h 12.9 km/h 49 % 0.0 mm 411.0 W/m2 CLR
15:07 17.8 °C 6.6 °C 1023.9 hPa NNW 9.3 km/h 9.3 km/h 48 % 0.0 mm 397.0 W/m2 CLR
15:12 17.8 °C 6.6 °C 1023.9 hPa North 9.3 km/h 9.3 km/h 48 % 0.0 mm 387.0 W/m2 CLR
15:17 17.8 °C 6.6 °C 1023.9 hPa NW 9.3 km/h 9.3 km/h 48 % 0.0 mm 378.0 W/m2 CLR
15:22 17.8 °C 6.6 °C 1023.9 hPa NW 9.3 km/h 9.3 km/h 48 % 0.0 mm 366.0 W/m2 CLR
15:27 17.8 °C 6.6 °C 1023.9 hPa NNW 9.3 km/h 9.3 km/h 48 % 0.0 mm 355.0 W/m2 CLR
15:32 17.8 °C 6.6 °C 1023.6 hPa NNW 7.4 km/h 7.4 km/h 48 % 0.0 mm 341.0 W/m2 CLR
15:37 18.3 °C 7.1 °C 1023.6 hPa NW 13.0 km/h 13.0 km/h 48 % 0.0 mm 330.0 W/m2 CLR
15:42 18.3 °C 7.1 °C 1023.6 hPa NW 7.4 km/h 7.4 km/h 48 % 0.0 mm 318.0 W/m2 CLR
15:47 18.3 °C 7.1 °C 1023.6 hPa NW 5.6 km/h 5.6 km/h 48 % 0.0 mm 306.0 W/m2 CLR
15:52 18.3 °C 7.1 °C 1023.6 hPa NW 5.6 km/h 5.6 km/h 48 % 0.0 mm 292.0 W/m2 CLR
15:58 17.8 °C 6.6 °C 1023.6 hPa NW 7.4 km/h 7.4 km/h 48 % 0.0 mm 279.0 W/m2 CLR
16:03 18.3 °C 7.1 °C 1023.2 hPa NW 1.9 km/h   48 % 0.0 mm 265.0 W/m2 CLR
16:08 18.3 °C 7.1 °C 1023.2 hPa NNW 13.0 km/h 13.0 km/h 48 % 0.0 mm 255.0 W/m2 CLR
16:13 17.8 °C 6.9 °C 1023.2 hPa Calm     49 % 0.0 mm 236.0 W/m2 CLR
16:18 17.8 °C 6.9 °C 1023.2 hPa NNW 1.6 km/h 1.6 km/h 49 % 0.0 mm 221.0 W/m2 CLR
16:23 17.8 °C 6.9 °C 1023.2 hPa NNW 9.3 km/h 9.3 km/h 49 % 0.0 mm 206.0 W/m2 CLR
16:28 17.8 °C 6.9 °C 1023.2 hPa Calm     49 % 0.0 mm 190.0 W/m2 CLR
16:33 17.8 °C 7.2 °C 1023.2 hPa NW 3.7 km/h 3.7 km/h 50 % 0.0 mm 176.0 W/m2 CLR
16:38 17.8 °C 7.5 °C 1023.2 hPa NNW 9.3 km/h 9.3 km/h 51 % 0.0 mm 156.0 W/m2 CLR
16:43 17.8 °C 7.8 °C 1023.2 hPa NNW 5.6 km/h 5.6 km/h 52 % 0.0 mm 142.0 W/m2 CLR
16:48 17.8 °C 8.3 °C 1023.2 hPa North 4.8 km/h 4.8 km/h 54 % 0.0 mm 127.0 W/m2 CLR
16:53 17.8 °C 8.3 °C 1023.2 hPa North 5.6 km/h 5.6 km/h 54 % 0.0 mm 111.0 W/m2 CLR
16:58 17.2 °C 7.8 °C 1023.2 hPa North 3.7 km/h 3.7 km/h 54 % 0.0 mm 95.0 W/m2 CLR
17:03 17.2 °C 8.1 °C 1023.2 hPa NNW 7.4 km/h 7.4 km/h 55 % 0.0 mm 83.0 W/m2 FEW
17:08 17.2 °C 8.4 °C 1023.2 hPa Calm     56 % 0.0 mm 63.0 W/m2 SCT
17:13 16.7 °C 7.8 °C 1023.2 hPa Calm     56 % 0.0 mm 56.0 W/m2 SCT
17:18 16.7 °C 8.1 °C 1023.6 hPa Calm     57 % 0.0 mm 44.0 W/m2 SCT
17:23 16.1 °C 7.8 °C 1023.6 hPa NNW 5.6 km/h 5.6 km/h 58 % 0.0 mm 35.0 W/m2 BKN
17:28 16.1 °C 8.1 °C 1023.2 hPa North 9.3 km/h 9.3 km/h 59 % 0.0 mm 26.0 W/m2 BKN
17:33 15.6 °C 7.8 °C 1023.6 hPa Calm     60 % 0.0 mm 21.0 W/m2 BKN
17:38 15.0 °C 7.6 °C 1023.6 hPa North 1.9 km/h   61 % 0.0 mm 16.0 W/m2 BKN
17:43 15.0 °C 7.8 °C 1023.6 hPa NNE 5.6 km/h 5.6 km/h 62 % 0.0 mm 12.0 W/m2 BKN
17:48 14.4 °C 7.5 °C 1023.6 hPa NE 9.3 km/h 9.3 km/h 63 % 0.0 mm 9.0 W/m2 BKN
17:53 14.4 °C 7.7 °C 1023.6 hPa NNE 8.0 km/h 8.0 km/h 64 % 0.0 mm 7.0 W/m2 BKN
17:58 13.9 °C 7.4 °C 1023.6 hPa NNE 3.7 km/h   65 % 0.0 mm 0.0 W/m2 OVC
18:03 13.9 °C 7.6 °C 1023.9 hPa NNE 1.9 km/h   66 % 0.0 mm 0.0 W/m2 CLR
18:08 13.3 °C 7.1 °C 1023.9 hPa Calm     66 % 0.0 mm 0.0 W/m2 CLR
18:13 12.8 °C 6.6 °C 1023.9 hPa Calm     66 % 0.0 mm 0.0 W/m2 CLR
18:18 12.2 °C 6.5 °C 1023.9 hPa ENE 7.4 km/h 7.4 km/h 68 % 0.0 mm 0.0 W/m2 CLR
18:23 11.7 °C 5.9 °C 1023.9 hPa NE 5.6 km/h 5.6 km/h 68 % 0.0 mm 0.0 W/m2 CLR
18:28 11.7 °C 6.2 °C 1023.9 hPa NE 5.6 km/h 5.6 km/h 69 % 0.0 mm 0.0 W/m2 CLR
18:33 11.7 °C 6.4 °C 1024.3 hPa ENE 8.0 km/h 8.0 km/h 70 % 0.0 mm 0.0 W/m2 CLR
18:38 11.7 °C 6.6 °C 1024.3 hPa NE 9.3 km/h 9.3 km/h 71 % 0.0 mm 0.0 W/m2 CLR
18:43 11.7 °C 6.6 °C 1024.3 hPa NE 5.6 km/h 5.6 km/h 71 % 0.0 mm 0.0 W/m2 CLR
18:48 11.7 °C 6.6 °C 1024.3 hPa Calm     71 % 0.0 mm 0.0 W/m2 CLR
18:53 11.7 °C 6.8 °C 1024.3 hPa Calm     72 % 0.0 mm 0.0 W/m2 CLR
18:58 11.7 °C 6.8 °C 1024.6 hPa Calm     72 % 0.0 mm 0.0 W/m2 CLR
19:03 11.7 °C 7.0 °C 1024.3 hPa Calm     73 % 0.0 mm 0.0 W/m2 CLR
19:08 11.1 °C 6.4 °C 1024.6 hPa Calm     73 % 0.0 mm 0.0 W/m2 CLR
19:13 11.1 °C 6.7 °C 1024.6 hPa ENE 5.6 km/h 5.6 km/h 74 % 0.0 mm 0.0 W/m2 CLR
19:18 11.1 °C 6.4 °C 1024.6 hPa East 5.6 km/h 5.6 km/h 73 % 0.0 mm 0.0 W/m2 CLR
19:23 10.6 °C 5.9 °C 1024.6 hPa ENE 11.1 km/h 11.1 km/h 73 % 0.0 mm 0.0 W/m2 CLR
19:28 10.6 °C 5.9 °C 1024.6 hPa Calm     73 % 0.0 mm 0.0 W/m2 CLR
19:33 10.0 °C 5.2 °C 1024.6 hPa Calm     72 % 0.0 mm 0.0 W/m2 CLR
19:38 10.0 °C 5.2 °C 1024.6 hPa Calm     72 % 0.0 mm 0.0 W/m2 CLR
19:43 9.4 °C 4.8 °C 1024.6 hPa Calm     73 % 0.0 mm 0.0 W/m2 CLR
19:48 9.4 °C 4.8 °C 1024.6 hPa Calm     73 % 0.0 mm 0.0 W/m2 CLR
19:53 9.4 °C 5.1 °C 1024.6 hPa Calm     74 % 0.0 mm 0.0 W/m2 CLR
19:58 8.9 °C 4.7 °C 1024.6 hPa Calm     75 % 0.0 mm 0.0 W/m2 CLR
20:03 8.9 °C 4.7 °C 1024.6 hPa Calm     75 % 0.0 mm 0.0 W/m2 CLR
20:08 8.9 °C 4.7 °C 1024.6 hPa Calm     75 % 0.0 mm 0.0 W/m2 CLR
20:13 8.3 °C 4.3 °C 1024.9 hPa Calm     76 % 0.0 mm 0.0 W/m2 CLR
20:18 8.3 °C 4.2 °C 1024.9 hPa Calm     75 % 0.0 mm 0.0 W/m2 CLR
20:23 8.3 °C 4.2 °C 1024.9 hPa Calm     75 % 0.0 mm 0.0 W/m2 CLR
20:28 8.3 °C 4.2 °C 1024.9 hPa Calm     75 % 0.0 mm 0.0 W/m2 CLR
20:33 8.3 °C 4.2 °C 1024.9 hPa Calm     75 % 0.0 mm 0.0 W/m2 CLR
20:38 8.3 °C 4.3 °C 1024.9 hPa Calm     76 % 0.0 mm 0.0 W/m2 CLR
20:43 8.3 °C 4.3 °C 1024.9 hPa Calm     76 % 0.0 mm 0.0 W/m2 CLR
20:48 8.3 °C 4.3 °C 1024.9 hPa Calm     76 % 0.0 mm 0.0 W/m2 CLR
20:53 8.3 °C 4.6 °C 1024.9 hPa Calm     77 % 0.0 mm 0.0 W/m2 CLR
20:58 8.9 °C 5.4 °C 1024.9 hPa Calm     79 % 0.0 mm 0.0 W/m2 CLR
21:03 8.9 °C 5.4 °C 1025.3 hPa Calm     79 % 0.0 mm 0.0 W/m2 CLR
21:08 8.9 °C 5.3 °C 1025.3 hPa Calm     78 % 0.0 mm 0.0 W/m2 CLR
21:13 8.9 °C 5.1 °C 1025.3 hPa Calm     77 % 0.0 mm 0.0 W/m2 CLR
21:18 8.9 °C 5.3 °C 1025.3 hPa Calm     78 % 0.0 mm 0.0 W/m2 CLR
21:23 8.9 °C 5.4 °C 1025.3 hPa Calm     79 % 0.0 mm 0.0 W/m2 CLR
21:29 8.3 °C 5.1 °C 1025.3 hPa Calm     80 % 0.0 mm 0.0 W/m2 CLR
21:33 8.3 °C 5.1 °C 1025.3 hPa Calm     80 % 0.0 mm 0.0 W/m2 CLR
21:38 8.3 °C 5.3 °C 1025.3 hPa Calm     81 % 0.0 mm 0.0 W/m2 CLR
21:44 8.3 °C 5.3 °C 1025.3 hPa Calm     81 % 0.0 mm 0.0 W/m2 CLR
21:49 8.3 °C 5.1 °C 1025.3 hPa Calm     80 % 0.0 mm 0.0 W/m2 CLR
21:54 7.8 °C 4.6 °C 1025.3 hPa Calm     80 % 0.0 mm 0.0 W/m2 CLR
21:59 7.8 °C 4.6 °C 1025.3 hPa Calm     80 % 0.0 mm 0.0 W/m2 CLR
22:04 7.8 °C 4.6 °C 1025.6 hPa Calm     80 % 0.0 mm 0.0 W/m2 CLR
22:09 7.8 °C 4.6 °C 1025.6 hPa Calm     80 % 0.0 mm 0.0 W/m2 CLR
22:14 7.2 °C 4.2 °C 1025.6 hPa Calm     81 % 0.0 mm 0.0 W/m2 CLR
22:19 7.2 °C 4.2 °C 1025.6 hPa Calm     81 % 0.0 mm 0.0 W/m2 CLR
22:24 6.7 °C 3.6 °C 1025.6 hPa Calm     81 % 0.0 mm 0.0 W/m2 CLR
22:29 6.7 °C 3.8 °C 1025.6 hPa Calm     82 % 0.0 mm 0.0 W/m2 CLR
22:34 6.7 °C 3.8 °C 1025.6 hPa Calm     82 % 0.0 mm 0.0 W/m2 CLR
22:39 6.7 °C 3.8 °C 1025.6 hPa Calm     82 % 0.0 mm 0.0 W/m2 CLR
22:44 6.7 °C 3.8 °C 1025.6 hPa Calm     82 % 0.0 mm 0.0 W/m2 CLR
22:49 6.7 °C 3.8 °C 1025.6 hPa Calm     82 % 0.0 mm 0.0 W/m2 CLR
22:54 6.7 °C 4.0 °C 1025.6 hPa Calm     83 % 0.0 mm 0.0 W/m2 CLR
22:59 6.7 °C 4.0 °C 1025.6 hPa Calm     83 % 0.0 mm 0.0 W/m2 CLR
23:04 6.1 °C 3.4 °C 1025.6 hPa Calm     83 % 0.0 mm 0.0 W/m2 CLR
23:09 6.1 °C 3.4 °C 1025.6 hPa Calm     83 % 0.0 mm 0.0 W/m2 CLR
23:14 6.1 °C 3.6 °C 1025.6 hPa Calm     84 % 0.0 mm 0.0 W/m2 CLR
23:19 6.1 °C 3.6 °C 1025.6 hPa Calm     84 % 0.0 mm 0.0 W/m2 CLR
23:24 6.1 °C 3.6 °C 1025.6 hPa Calm     84 % 0.0 mm 0.0 W/m2 CLR
23:29 5.6 °C 3.2 °C 1025.6 hPa Calm     85 % 0.0 mm 0.0 W/m2 CLR
23:34 5.6 °C 3.1 °C 1025.6 hPa Calm     84 % 0.0 mm 0.0 W/m2 CLR
23:39 5.6 °C 3.1 °C 1025.6 hPa Calm     84 % 0.0 mm 0.0 W/m2 CLR
23:44 5.6 °C 3.1 °C 1025.6 hPa Calm     84 % 0.0 mm 0.0 W/m2 CLR
23:49 5.6 °C 3.2 °C 1025.6 hPa Calm     85 % 0.0 mm 0.0 W/m2 CLR
23:54 5.6 °C 3.1 °C 1025.6 hPa Calm     84 % 0.0 mm 0.0 W/m2 CLR
23:59 5.6 °C 3.2 °C 1025.6 hPa Calm     85 % 0.0 mm 0.0 W/m2 CLR
Lo Temps de Massalio
Compliments of Weather Underground - 1.25 mb